sensor_id;sensor_type;location;lat;lon;timestamp;pressure;altitude;pressure_sealevel;temperature;humidity
33191;BME280;19554;42.652;23.364;2024-01-30T00:02:23;96570.22;;;1.32;55.82
33191;BME280;19554;42.652;23.364;2024-01-30T00:04:49;96514.41;;;0.77;56.25
33191;BME280;19554;42.652;23.364;2024-01-30T00:07:14;96440.28;;;0.29;56.43
33191;BME280;19554;42.652;23.364;2024-01-30T00:09:40;96564.31;;;1.00;56.62
33191;BME280;19554;42.652;23.364;2024-01-30T00:12:06;96550.94;;;0.72;57.13
33191;BME280;19554;42.652;23.364;2024-01-30T00:14:31;96566.06;;;0.85;57.32
33191;BME280;19554;42.652;23.364;2024-01-30T00:16:57;96532.47;;;0.57;57.20
33191;BME280;19554;42.652;23.364;2024-01-30T00:19:22;96448.63;;;-0.05;57.17
33191;BME280;19554;42.652;23.364;2024-01-30T00:21:48;96574.97;;;0.84;57.33
33191;BME280;19554;42.652;23.364;2024-01-30T00:24:13;96563.44;;;0.85;57.07
33191;BME280;19554;42.652;23.364;2024-01-30T00:26:39;96502.50;;;0.52;57.36
33191;BME280;19554;42.652;23.364;2024-01-30T00:29:04;96580.28;;;1.13;56.88
33191;BME280;19554;42.652;23.364;2024-01-30T00:31:30;96507.78;;;0.81;56.34
33191;BME280;19554;42.652;23.364;2024-01-30T00:33:55;96577.75;;;1.35;55.88
33191;BME280;19554;42.652;23.364;2024-01-30T00:36:21;96575.03;;;1.43;55.58
33191;BME280;19554;42.652;23.364;2024-01-30T00:38:46;96564.50;;;1.43;55.44
33191;BME280;19554;42.652;23.364;2024-01-30T00:41:12;96521.31;;;1.23;55.70
33191;BME280;19554;42.652;23.364;2024-01-30T00:43:38;96556.69;;;1.50;55.67
33191;BME280;19554;42.652;23.364;2024-01-30T00:46:03;96530.03;;;1.38;55.25
33191;BME280;19554;42.652;23.364;2024-01-30T00:48:29;96503.75;;;1.23;55.97
33191;BME280;19554;42.652;23.364;2024-01-30T00:50:54;96504.19;;;1.27;55.74
33191;BME280;19554;42.652;23.364;2024-01-30T00:53:20;96429.03;;;0.88;55.48
33191;BME280;19554;42.652;23.364;2024-01-30T00:55:46;96572.28;;;1.81;55.09
33191;BME280;19554;42.652;23.364;2024-01-30T00:58:11;96573.16;;;1.88;54.83
33191;BME280;19554;42.652;23.364;2024-01-30T01:00:37;96564.72;;;1.93;54.46
33191;BME280;19554;42.652;23.364;2024-01-30T01:03:02;96523.47;;;1.63;54.25
33191;BME280;19554;42.652;23.364;2024-01-30T01:05:28;96563.28;;;1.90;53.93
33191;BME280;19554;42.652;23.364;2024-01-30T01:07:53;96459.22;;;1.22;54.00
33191;BME280;19554;42.652;23.364;2024-01-30T01:10:19;96500.63;;;1.49;53.74
33191;BME280;19554;42.652;23.364;2024-01-30T01:12:45;96557.00;;;1.91;54.14
33191;BME280;19554;42.652;23.364;2024-01-30T01:15:11;96560.94;;;1.80;54.16
33191;BME280;19554;42.652;23.364;2024-01-30T01:17:37;96568.69;;;1.52;55.14
33191;BME280;19554;42.652;23.364;2024-01-30T01:20:04;96566.41;;;1.49;55.60
33191;BME280;19554;42.652;23.364;2024-01-30T01:22:30;96562.41;;;1.53;55.33
33191;BME280;19554;42.652;23.364;2024-01-30T01:24:56;96451.56;;;0.53;56.08
33191;BME280;19554;42.652;23.364;2024-01-30T01:27:22;96521.72;;;0.67;56.93
33191;BME280;19554;42.652;23.364;2024-01-30T01:29:47;96542.31;;;0.78;57.37
33191;BME280;19554;42.652;23.364;2024-01-30T01:32:13;96564.91;;;1.02;56.98
33191;BME280;19554;42.652;23.364;2024-01-30T01:34:38;96487.00;;;0.57;56.70
33191;BME280;19554;42.652;23.364;2024-01-30T01:37:04;96569.66;;;1.07;56.86
33191;BME280;19554;42.652;23.364;2024-01-30T01:39:29;96573.91;;;0.93;57.06
33191;BME280;19554;42.652;23.364;2024-01-30T01:41:55;96520.16;;;0.58;57.45
33191;BME280;19554;42.652;23.364;2024-01-30T01:44:20;96564.31;;;1.00;57.32
33191;BME280;19554;42.652;23.364;2024-01-30T01:46:46;96504.50;;;0.64;57.08
33191;BME280;19554;42.652;23.364;2024-01-30T01:49:11;96483.56;;;0.56;56.75
33191;BME280;19554;42.652;23.364;2024-01-30T01:51:37;96565.78;;;1.17;56.77
33191;BME280;19554;42.652;23.364;2024-01-30T01:54:05;96574.84;;;1.30;56.49
33191;BME280;19554;42.652;23.364;2024-01-30T01:56:32;96575.69;;;1.30;56.99
33191;BME280;19554;42.652;23.364;2024-01-30T01:59:08;96525.47;;;1.02;57.01
33191;BME280;19554;42.652;23.364;2024-01-30T02:01:37;96512.34;;;0.87;56.63
33191;BME280;19554;42.652;23.364;2024-01-30T02:04:03;96546.88;;;0.99;55.98
33191;BME280;19554;42.652;23.364;2024-01-30T02:06:28;96570.38;;;1.15;55.68
33191;BME280;19554;42.652;23.364;2024-01-30T02:08:54;96506.78;;;0.67;55.96
33191;BME280;19554;42.652;23.364;2024-01-30T02:11:22;96572.25;;;0.92;55.88
33191;BME280;19554;42.652;23.364;2024-01-30T02:13:49;96508.91;;;0.49;55.91
33191;BME280;19554;42.652;23.364;2024-01-30T02:16:15;96559.09;;;0.92;55.43
33191;BME280;19554;42.652;23.364;2024-01-30T02:18:42;96502.69;;;0.65;55.35
33191;BME280;19554;42.652;23.364;2024-01-30T02:21:10;96561.69;;;1.15;55.33
33191;BME280;19554;42.652;23.364;2024-01-30T02:23:36;96502.28;;;0.91;55.20
33191;BME280;19554;42.652;23.364;2024-01-30T02:26:03;96539.53;;;1.09;55.33
33191;BME280;19554;42.652;23.364;2024-01-30T02:28:28;96549.72;;;1.27;55.26
33191;BME280;19554;42.652;23.364;2024-01-30T02:30:54;96580.28;;;1.43;55.27
33191;BME280;19554;42.652;23.364;2024-01-30T02:33:19;96530.03;;;1.08;55.24
33191;BME280;19554;42.652;23.364;2024-01-30T02:35:47;96394.25;;;0.04;55.19
33191;BME280;19554;42.652;23.364;2024-01-30T02:38:13;96575.47;;;1.17;55.21
33191;BME280;19554;42.652;23.364;2024-01-30T02:40:38;96531.63;;;0.80;55.62
33191;BME280;19554;42.652;23.364;2024-01-30T02:43:04;96575.63;;;1.01;55.49
33191;BME280;19554;42.652;23.364;2024-01-30T02:45:30;96502.53;;;0.66;55.66
33191;BME280;19554;42.652;23.364;2024-01-30T02:47:55;96470.50;;;0.48;55.42
33191;BME280;19554;42.652;23.364;2024-01-30T02:50:21;96580.75;;;1.17;55.86
33191;BME280;19554;42.652;23.364;2024-01-30T02:52:46;96555.59;;;1.00;55.71
33191;BME280;19554;42.652;23.364;2024-01-30T02:55:12;96522.75;;;0.81;55.51
33191;BME280;19554;42.652;23.364;2024-01-30T02:57:38;96275.91;;;-1.08;54.63
33191;BME280;19554;42.652;23.364;2024-01-30T03:00:04;96505.28;;;0.50;54.69
33191;BME280;19554;42.652;23.364;2024-01-30T03:02:31;96569.47;;;0.93;54.82
33191;BME280;19554;42.652;23.364;2024-01-30T03:04:57;96546.13;;;0.76;55.53
33191;BME280;19554;42.652;23.364;2024-01-30T03:07:22;96563.19;;;0.80;54.64
33191;BME280;19554;42.652;23.364;2024-01-30T03:09:48;96539.28;;;0.52;55.10
33191;BME280;19554;42.652;23.364;2024-01-30T03:12:13;96539.75;;;0.55;55.97
33191;BME280;19554;42.652;23.364;2024-01-30T03:14:39;96544.22;;;0.69;56.79
33191;BME280;19554;42.652;23.364;2024-01-30T03:17:04;96529.84;;;0.57;56.62
33191;BME280;19554;42.652;23.364;2024-01-30T03:19:30;96571.50;;;0.68;55.74
33191;BME280;19554;42.652;23.364;2024-01-30T03:21:55;96515.91;;;0.34;56.77
33191;BME280;19554;42.652;23.364;2024-01-30T03:24:21;96492.16;;;0.27;56.66
33191;BME280;19554;42.652;23.364;2024-01-30T03:26:46;96568.88;;;0.83;56.48
33191;BME280;19554;42.652;23.364;2024-01-30T03:29:12;96455.09;;;0.07;55.85
33191;BME280;19554;42.652;23.364;2024-01-30T03:31:38;96488.81;;;0.18;55.63
33191;BME280;19554;42.652;23.364;2024-01-30T03:34:03;96565.28;;;0.61;56.00
33191;BME280;19554;42.652;23.364;2024-01-30T03:36:29;96531.69;;;0.34;56.10
33191;BME280;19554;42.652;23.364;2024-01-30T03:38:58;96493.34;;;0.25;57.45
33191;BME280;19554;42.652;23.364;2024-01-30T03:41:23;96557.16;;;0.71;57.14
33191;BME280;19554;42.652;23.364;2024-01-30T03:43:49;96560.19;;;0.83;57.15
33191;BME280;19554;42.652;23.364;2024-01-30T03:46:15;96561.72;;;0.92;56.45
33191;BME280;19554;42.652;23.364;2024-01-30T03:48:41;96461.88;;;0.39;56.30
33191;BME280;19554;42.652;23.364;2024-01-30T03:51:06;96554.78;;;1.14;54.95
33191;BME280;19554;42.652;23.364;2024-01-30T03:53:31;96553.34;;;1.26;54.95
33191;BME280;19554;42.652;23.364;2024-01-30T03:55:57;96531.22;;;1.21;55.13
33191;BME280;19554;42.652;23.364;2024-01-30T03:58:23;96521.31;;;1.23;55.21
33191;BME280;19554;42.652;23.364;2024-01-30T04:00:48;96472.44;;;0.99;55.24
33191;BME280;19554;42.652;23.364;2024-01-30T04:03:14;96474.19;;;1.06;55.46
33191;BME280;19554;42.652;23.364;2024-01-30T04:05:41;96395.50;;;0.60;55.31
33191;BME280;19554;42.652;23.364;2024-01-30T04:08:07;96524.59;;;1.54;55.34
33191;BME280;19554;42.652;23.364;2024-01-30T04:10:32;96368.88;;;0.63;54.97
33191;BME280;19554;42.652;23.364;2024-01-30T04:12:58;96544.31;;;1.80;55.19
33191;BME280;19554;42.652;23.364;2024-01-30T04:15:23;96545.59;;;1.84;54.95
33191;BME280;19554;42.652;23.364;2024-01-30T04:17:49;96547.84;;;1.87;54.14
33191;BME280;19554;42.652;23.364;2024-01-30T04:20:15;96542.94;;;1.84;53.63
33191;BME280;19554;42.652;23.364;2024-01-30T04:22:45;96529.50;;;1.57;54.17
33191;BME280;19554;42.652;23.364;2024-01-30T04:25:11;96485.03;;;1.33;54.26
33191;BME280;19554;42.652;23.364;2024-01-30T04:27:37;96508.16;;;1.52;54.45
33191;BME280;19554;42.652;23.364;2024-01-30T04:30:02;96536.47;;;1.65;53.67
33191;BME280;19554;42.652;23.364;2024-01-30T04:32:29;96544.69;;;1.77;53.52
33191;BME280;19554;42.652;23.364;2024-01-30T04:34:54;96532.00;;;1.65;52.77
33191;BME280;19554;42.652;23.364;2024-01-30T04:37:20;96526.91;;;1.64;52.82
33191;BME280;19554;42.652;23.364;2024-01-30T04:39:45;96563.03;;;1.85;52.95
33191;BME280;19554;42.652;23.364;2024-01-30T04:42:11;96514.06;;;1.54;53.55
33191;BME280;19554;42.652;23.364;2024-01-30T04:44:36;96506.69;;;1.50;54.68
33191;BME280;19554;42.652;23.364;2024-01-30T04:47:01;96482.16;;;1.28;54.40
33191;BME280;19554;42.652;23.364;2024-01-30T04:49:28;96562.50;;;1.75;54.50
33191;BME280;19554;42.652;23.364;2024-01-30T04:51:54;96419.97;;;0.76;55.47
33191;BME280;19554;42.652;23.364;2024-01-30T04:54:20;96571.50;;;1.51;55.26
33191;BME280;19554;42.652;23.364;2024-01-30T04:56:46;96517.03;;;0.77;55.07
33191;BME280;19554;42.652;23.364;2024-01-30T04:59:11;96521.72;;;0.67;55.82
33191;BME280;19554;42.652;23.364;2024-01-30T05:01:37;96579.94;;;0.79;56.35
33191;BME280;19554;42.652;23.364;2024-01-30T05:04:02;96520.22;;;0.50;55.99
33191;BME280;19554;42.652;23.364;2024-01-30T05:06:29;96575.41;;;0.87;55.89
33191;BME280;19554;42.652;23.364;2024-01-30T05:08:55;96556.28;;;0.79;56.70
33191;BME280;19554;42.652;23.364;2024-01-30T05:11:21;96531.19;;;0.76;57.00
33191;BME280;19554;42.652;23.364;2024-01-30T05:13:46;96559.03;;;1.00;56.47
33191;BME280;19554;42.652;23.364;2024-01-30T05:16:12;96536.56;;;0.98;55.86
33191;BME280;19554;42.652;23.364;2024-01-30T05:18:38;96548.72;;;1.13;55.74
33191;BME280;19554;42.652;23.364;2024-01-30T05:21:04;96533.31;;;1.10;56.54
33191;BME280;19554;42.652;23.364;2024-01-30T05:23:29;96550.00;;;1.17;55.87
33191;BME280;19554;42.652;23.364;2024-01-30T05:25:55;96505.56;;;0.93;55.81
33191;BME280;19554;42.652;23.364;2024-01-30T05:28:20;96526.50;;;1.01;56.09
33191;BME280;19554;42.652;23.364;2024-01-30T05:30:46;96554.50;;;1.09;56.31
33191;BME280;19554;42.652;23.364;2024-01-30T05:33:11;96570.84;;;1.04;55.50
33191;BME280;19554;42.652;23.364;2024-01-30T05:35:37;96559.75;;;0.94;54.99
33191;BME280;19554;42.652;23.364;2024-01-30T05:38:03;96590.00;;;1.13;56.01
33191;BME280;19554;42.652;23.364;2024-01-30T05:40:29;96543.78;;;0.81;56.44
33191;BME280;19554;42.652;23.364;2024-01-30T05:42:55;96591.16;;;1.10;55.65
33191;BME280;19554;42.652;23.364;2024-01-30T05:45:21;96549.94;;;0.88;55.08
33191;BME280;19554;42.652;23.364;2024-01-30T05:47:48;96539.78;;;0.85;54.61
33191;BME280;19554;42.652;23.364;2024-01-30T05:50:14;96510.41;;;0.66;54.14
33191;BME280;19554;42.652;23.364;2024-01-30T05:52:39;96471.22;;;0.42;54.42
33191;BME280;19554;42.652;23.364;2024-01-30T05:55:05;96474.94;;;0.47;55.50
33191;BME280;19554;42.652;23.364;2024-01-30T05:57:30;96554.69;;;1.07;54.98
33191;BME280;19554;42.652;23.364;2024-01-30T05:59:56;96544.19;;;1.07;54.31
33191;BME280;19554;42.652;23.364;2024-01-30T06:02:22;96587.28;;;1.51;53.52
33191;BME280;19554;42.652;23.364;2024-01-30T06:04:47;96574.66;;;1.46;52.73
33191;BME280;19554;42.652;23.364;2024-01-30T06:07:12;96590.28;;;1.62;52.38
33191;BME280;19554;42.652;23.364;2024-01-30T06:09:38;96584.56;;;1.59;52.95
33191;BME280;19554;42.652;23.364;2024-01-30T06:12:05;96534.22;;;1.17;52.44
33191;BME280;19554;42.652;23.364;2024-01-30T06:14:30;96548.53;;;1.30;52.45
33191;BME280;19554;42.652;23.364;2024-01-30T06:16:56;96526.50;;;1.16;51.58
33191;BME280;19554;42.652;23.364;2024-01-30T06:19:21;96589.38;;;1.55;51.98
33191;BME280;19554;42.652;23.364;2024-01-30T06:21:47;96550.53;;;1.28;51.58
33191;BME280;19554;42.652;23.364;2024-01-30T06:24:12;96596.25;;;1.56;51.87
33191;BME280;19554;42.652;23.364;2024-01-30T06:26:38;96573.03;;;1.45;51.35
33191;BME280;19554;42.652;23.364;2024-01-30T06:29:04;96575.31;;;1.48;51.40
33191;BME280;19554;42.652;23.364;2024-01-30T06:31:29;96571.41;;;1.44;51.95
33191;BME280;19554;42.652;23.364;2024-01-30T06:33:55;96591.25;;;1.47;51.95
33191;BME280;19554;42.652;23.364;2024-01-30T06:36:20;96540.81;;;0.99;52.19
33191;BME280;19554;42.652;23.364;2024-01-30T06:38:46;96600.59;;;1.19;52.91
33191;BME280;19554;42.652;23.364;2024-01-30T06:41:11;96600.78;;;1.33;52.77
33191;BME280;19554;42.652;23.364;2024-01-30T06:43:37;96601.44;;;1.35;52.71
33191;BME280;19554;42.652;23.364;2024-01-30T06:46:02;96567.41;;;1.18;52.55
33191;BME280;19554;42.652;23.364;2024-01-30T06:48:28;96579.13;;;1.31;52.83
33191;BME280;19554;42.652;23.364;2024-01-30T06:50:54;96605.16;;;1.55;52.93
33191;BME280;19554;42.652;23.364;2024-01-30T06:53:19;96603.13;;;1.87;51.95
33191;BME280;19554;42.652;23.364;2024-01-30T06:55:45;96602.38;;;2.23;50.54
33191;BME280;19554;42.652;23.364;2024-01-30T06:58:11;96608.81;;;2.56;49.23
33191;BME280;19554;42.652;23.364;2024-01-30T07:00:36;96609.41;;;2.80;47.44
33191;BME280;19554;42.652;23.364;2024-01-30T07:03:02;96594.06;;;2.90;45.92
33191;BME280;19554;42.652;23.364;2024-01-30T07:05:27;96610.22;;;3.30;44.92
33191;BME280;19554;42.652;23.364;2024-01-30T07:07:53;96442.81;;;2.42;43.74
33191;BME280;19554;42.652;23.364;2024-01-30T07:10:18;96583.03;;;3.29;43.76
33191;BME280;19554;42.652;23.364;2024-01-30T07:12:44;96596.69;;;3.74;43.10
33191;BME280;19554;42.652;23.364;2024-01-30T07:15:09;96484.72;;;3.21;42.66
33191;BME280;19554;42.652;23.364;2024-01-30T07:17:35;96579.19;;;3.67;42.86
33191;BME280;19554;42.652;23.364;2024-01-30T07:20:01;96577.28;;;3.95;42.48
33191;BME280;19554;42.652;23.364;2024-01-30T07:22:29;96555.91;;;3.84;41.68
33191;BME280;19554;42.652;23.364;2024-01-30T07:24:55;96584.75;;;3.85;41.37
33191;BME280;19554;42.652;23.364;2024-01-30T07:27:21;96508.88;;;3.66;41.14
33191;BME280;19554;42.652;23.364;2024-01-30T07:29:47;96556.22;;;4.15;40.58
33191;BME280;19554;42.652;23.364;2024-01-30T07:32:12;96484.31;;;2.89;41.00
33191;BME280;19554;42.652;23.364;2024-01-30T07:34:38;96608.69;;;3.77;41.43
33191;BME280;19554;42.652;23.364;2024-01-30T07:37:03;96606.56;;;3.94;41.58
33191;BME280;19554;42.652;23.364;2024-01-30T07:39:29;96602.59;;;4.18;40.67
33191;BME280;19554;42.652;23.364;2024-01-30T07:41:54;96610.53;;;3.76;41.29
33191;BME280;19554;42.652;23.364;2024-01-30T07:44:20;96608.44;;;3.72;41.53
33191;BME280;19554;42.652;23.364;2024-01-30T07:46:46;96602.66;;;3.55;42.28
33191;BME280;19554;42.652;23.364;2024-01-30T07:49:11;96599.94;;;3.70;42.26
33191;BME280;19554;42.652;23.364;2024-01-30T07:51:39;96595.44;;;4.12;40.82
33191;BME280;19554;42.652;23.364;2024-01-30T07:54:05;96545.16;;;3.92;40.79
33191;BME280;19554;42.652;23.364;2024-01-30T07:56:30;96576.19;;;4.44;39.51
33191;BME280;19554;42.652;23.364;2024-01-30T07:58:56;96606.53;;;4.48;39.71
33191;BME280;19554;42.652;23.364;2024-01-30T08:01:21;96514.22;;;3.79;39.75
33191;BME280;19554;42.652;23.364;2024-01-30T08:03:47;96583.16;;;4.45;40.10
33191;BME280;19554;42.652;23.364;2024-01-30T08:06:12;96577.47;;;4.75;39.77
33191;BME280;19554;42.652;23.364;2024-01-30T08:08:38;96519.88;;;4.57;39.18
33191;BME280;19554;42.652;23.364;2024-01-30T08:11:03;96594.56;;;4.66;39.51
33191;BME280;19554;42.652;23.364;2024-01-30T08:13:29;96578.28;;;4.56;39.42
33191;BME280;19554;42.652;23.364;2024-01-30T08:15:54;96480.22;;;4.37;39.04
33191;BME280;19554;42.652;23.364;2024-01-30T08:18:20;96571.00;;;5.17;39.19
33191;BME280;19554;42.652;23.364;2024-01-30T08:20:45;96591.53;;;5.22;38.39
33191;BME280;19554;42.652;23.364;2024-01-30T08:23:11;96596.25;;;5.07;38.51
33191;BME280;19554;42.652;23.364;2024-01-30T08:25:36;96522.88;;;4.14;38.20
33191;BME280;19554;42.652;23.364;2024-01-30T08:28:02;96579.91;;;4.63;38.90
33191;BME280;19554;42.652;23.364;2024-01-30T08:30:28;96589.31;;;4.92;38.93
33191;BME280;19554;42.652;23.364;2024-01-30T08:32:53;96526.00;;;4.71;38.12
33191;BME280;19554;42.652;23.364;2024-01-30T08:35:19;96546.16;;;5.05;37.80
33191;BME280;19554;42.652;23.364;2024-01-30T08:37:44;96590.53;;;4.96;38.33
33191;BME280;19554;42.652;23.364;2024-01-30T08:40:10;96597.47;;;5.04;38.21
33191;BME280;19554;42.652;23.364;2024-01-30T08:42:35;96530.28;;;4.59;38.55
33191;BME280;19554;42.652;23.364;2024-01-30T08:45:01;96611.66;;;4.70;38.78
33191;BME280;19554;42.652;23.364;2024-01-30T08:47:26;96571.56;;;4.60;38.77
33191;BME280;19554;42.652;23.364;2024-01-30T08:49:52;96579.53;;;4.86;38.42
33191;BME280;19554;42.652;23.364;2024-01-30T08:52:17;96604.56;;;4.77;38.35
33191;BME280;19554;42.652;23.364;2024-01-30T08:54:43;96606.75;;;4.60;39.00
33191;BME280;19554;42.652;23.364;2024-01-30T08:57:08;96607.91;;;4.31;39.46
33191;BME280;19554;42.652;23.364;2024-01-30T08:59:34;96523.50;;;3.62;40.02
33191;BME280;19554;42.652;23.364;2024-01-30T09:01:59;96607.56;;;3.99;39.90
33191;BME280;19554;42.652;23.364;2024-01-30T09:04:25;96616.97;;;4.09;39.77
33191;BME280;19554;42.652;23.364;2024-01-30T09:06:51;96567.16;;;4.06;39.70
33191;BME280;19554;42.652;23.364;2024-01-30T09:09:17;96611.22;;;3.98;40.37
33191;BME280;19554;42.652;23.364;2024-01-30T09:11:43;96473.09;;;3.50;39.68
33191;BME280;19554;42.652;23.364;2024-01-30T09:14:08;96607.56;;;4.54;39.45
33191;BME280;19554;42.652;23.364;2024-01-30T09:16:34;96587.47;;;4.73;39.30
33191;BME280;19554;42.652;23.364;2024-01-30T09:19:00;96599.91;;;4.92;39.13
33191;BME280;19554;42.652;23.364;2024-01-30T09:21:25;96595.00;;;4.76;40.18
33191;BME280;19554;42.652;23.364;2024-01-30T09:23:54;96595.78;;;4.70;39.38
33191;BME280;19554;42.652;23.364;2024-01-30T09:26:19;96589.50;;;4.84;39.04
33191;BME280;19554;42.652;23.364;2024-01-30T09:28:45;96544.06;;;4.47;39.54
33191;BME280;19554;42.652;23.364;2024-01-30T09:31:11;96551.41;;;4.45;39.54
33191;BME280;19554;42.652;23.364;2024-01-30T09:33:37;96545.34;;;4.51;39.10
33191;BME280;19554;42.652;23.364;2024-01-30T09:36:03;96579.72;;;4.78;39.31
33191;BME280;19554;42.652;23.364;2024-01-30T09:38:29;96583.19;;;4.85;38.96
33191;BME280;19554;42.652;23.364;2024-01-30T09:40:54;96543.28;;;4.60;39.02
33191;BME280;19554;42.652;23.364;2024-01-30T09:43:23;96543.72;;;4.90;38.61
33191;BME280;19554;42.652;23.364;2024-01-30T09:45:53;96547.78;;;4.86;38.22
33191;BME280;19554;42.652;23.364;2024-01-30T09:48:19;96581.28;;;4.39;39.46
33191;BME280;19554;42.652;23.364;2024-01-30T09:50:45;96548.78;;;3.84;40.43
33191;BME280;19554;42.652;23.364;2024-01-30T09:53:13;96503.25;;;3.34;41.04
33191;BME280;19554;42.652;23.364;2024-01-30T09:55:42;96464.16;;;2.75;43.08
33191;BME280;19554;42.652;23.364;2024-01-30T09:58:08;96468.63;;;2.25;44.69
33191;BME280;19554;42.652;23.364;2024-01-30T10:00:34;96520.34;;;2.11;45.69
33191;BME280;19554;42.652;23.364;2024-01-30T10:02:59;96578.75;;;2.14;46.59
33191;BME280;19554;42.652;23.364;2024-01-30T10:05:27;96532.53;;;1.76;47.03
33191;BME280;19554;42.652;23.364;2024-01-30T10:07:56;96523.78;;;1.90;47.49
33191;BME280;19554;42.652;23.364;2024-01-30T10:10:23;96431.53;;;1.26;46.48
33191;BME280;19554;42.652;23.364;2024-01-30T10:12:51;96551.16;;;2.10;46.60
33191;BME280;19554;42.652;23.364;2024-01-30T10:15:18;96452.41;;;1.27;46.34
33191;BME280;19554;42.652;23.364;2024-01-30T10:17:45;96549.00;;;1.99;46.08
33191;BME280;19554;42.652;23.364;2024-01-30T10:20:12;96565.84;;;2.20;46.02
33191;BME280;19554;42.652;23.364;2024-01-30T10:22:40;96516.03;;;2.03;45.96
33191;BME280;19554;42.652;23.364;2024-01-30T10:25:07;96536.81;;;1.98;46.50
33191;BME280;19554;42.652;23.364;2024-01-30T10:27:34;96529.91;;;1.76;47.35
33191;BME280;19554;42.652;23.364;2024-01-30T10:30:00;96581.72;;;1.90;47.53
33191;BME280;19554;42.652;23.364;2024-01-30T10:32:27;96431.56;;;0.66;48.20
33191;BME280;19554;42.652;23.364;2024-01-30T10:34:52;96515.69;;;1.26;49.69
33191;BME280;19554;42.652;23.364;2024-01-30T10:37:19;96561.88;;;1.28;49.73
33191;BME280;19554;42.652;23.364;2024-01-30T10:39:46;96456.94;;;0.89;48.99
33191;BME280;19554;42.652;23.364;2024-01-30T10:42:17;96490.88;;;1.13;48.83
33191;BME280;19554;42.652;23.364;2024-01-30T10:47:26;96569.38;;;1.76;48.14
33191;BME280;19554;42.652;23.364;2024-01-30T10:49:52;96567.75;;;1.60;48.35
33191;BME280;19554;42.652;23.364;2024-01-30T10:52:20;96558.31;;;1.65;48.45
33191;BME280;19554;42.652;23.364;2024-01-30T10:54:46;96513.00;;;1.34;48.48
33191;BME280;19554;42.652;23.364;2024-01-30T10:57:13;96547.50;;;1.60;48.45
33191;BME280;19554;42.652;23.364;2024-01-30T10:59:41;96555.94;;;1.71;48.67
33191;BME280;19554;42.652;23.364;2024-01-30T11:02:08;96526.56;;;1.52;48.52
33191;BME280;19554;42.652;23.364;2024-01-30T11:04:40;96489.72;;;1.52;48.59
33191;BME280;19554;42.652;23.364;2024-01-30T11:07:24;96450.53;;;1.57;47.23
33191;BME280;19554;42.652;23.364;2024-01-30T11:09:51;96519.66;;;2.45;46.86
33191;BME280;19554;42.652;23.364;2024-01-30T11:12:20;96542.19;;;2.97;45.88
33191;BME280;19554;42.652;23.364;2024-01-30T11:14:46;96548.78;;;3.08;46.06
33191;BME280;19554;42.652;23.364;2024-01-30T11:17:12;96512.38;;;2.69;45.67
33191;BME280;19554;42.652;23.364;2024-01-30T11:19:37;96536.47;;;2.94;45.40
33191;BME280;19554;42.652;23.364;2024-01-30T11:22:03;96483.47;;;2.54;45.43
33191;BME280;19554;42.652;23.364;2024-01-30T11:24:38;96489.59;;;2.89;45.11
33191;BME280;19554;42.652;23.364;2024-01-30T11:27:08;96530.59;;;3.20;45.13
33191;BME280;19554;42.652;23.364;2024-01-30T11:29:34;96448.34;;;2.75;44.64
33191;BME280;19554;42.652;23.364;2024-01-30T11:32:00;96461.34;;;2.83;44.79
33191;BME280;19554;42.652;23.364;2024-01-30T11:34:25;96528.72;;;3.14;44.74
33191;BME280;19554;42.652;23.364;2024-01-30T11:36:55;96532.13;;;3.07;45.54
33191;BME280;19554;42.652;23.364;2024-01-30T11:39:24;96506.59;;;2.58;45.98
33191;BME280;19554;42.652;23.364;2024-01-30T11:41:50;96545.41;;;2.65;46.77
33191;BME280;19554;42.652;23.364;2024-01-30T11:44:16;96542.63;;;2.73;46.56
33191;BME280;19554;42.652;23.364;2024-01-30T11:46:42;96423.22;;;2.23;46.06
33191;BME280;19554;42.652;23.364;2024-01-30T11:49:07;96484.00;;;2.71;46.01
33191;BME280;19554;42.652;23.364;2024-01-30T11:51:33;96527.53;;;2.88;45.75
33191;BME280;19554;42.652;23.364;2024-01-30T11:53:58;96523.41;;;2.79;46.05
33191;BME280;19554;42.652;23.364;2024-01-30T11:56:24;96427.00;;;1.92;46.54
33191;BME280;19554;42.652;23.364;2024-01-30T11:58:50;96520.91;;;2.71;46.86
33191;BME280;19554;42.652;23.364;2024-01-30T12:01:17;96503.97;;;2.87;46.05
33191;BME280;19554;42.652;23.364;2024-01-30T12:03:49;96508.53;;;2.99;45.77
33191;BME280;19554;42.652;23.364;2024-01-30T12:06:15;96483.94;;;2.92;45.55
33191;BME280;19554;42.652;23.364;2024-01-30T12:08:41;96433.84;;;2.92;45.10
33191;BME280;19554;42.652;23.364;2024-01-30T12:11:07;96496.19;;;3.41;44.73
33191;BME280;19554;42.652;23.364;2024-01-30T12:13:32;96433.97;;;3.19;44.50
33191;BME280;19554;42.652;23.364;2024-01-30T12:15:59;96492.53;;;3.36;44.54
33191;BME280;19554;42.652;23.364;2024-01-30T12:18:24;96409.09;;;2.93;44.58
33191;BME280;19554;42.652;23.364;2024-01-30T12:20:57;96457.13;;;3.23;45.05
33191;BME280;19554;42.652;23.364;2024-01-30T12:23:24;96374.03;;;2.65;45.14
33191;BME280;19554;42.652;23.364;2024-01-30T12:25:51;96423.44;;;3.19;44.51
33191;BME280;19554;42.652;23.364;2024-01-30T12:28:17;96448.34;;;3.09;44.60
33191;BME280;19554;42.652;23.364;2024-01-30T12:30:43;96467.66;;;3.17;45.24
33191;BME280;19554;42.652;23.364;2024-01-30T12:33:08;96363.03;;;2.54;45.12
33191;BME280;19554;42.652;23.364;2024-01-30T12:35:35;96415.94;;;2.81;45.55
33191;BME280;19554;42.652;23.364;2024-01-30T12:38:02;96461.06;;;2.99;45.50
33191;BME280;19554;42.652;23.364;2024-01-30T12:40:27;96329.16;;;2.17;45.24
33191;BME280;19554;42.652;23.364;2024-01-30T12:42:53;96414.19;;;2.67;45.50
33191;BME280;19554;42.652;23.364;2024-01-30T12:45:19;96451.97;;;2.74;45.50
33191;BME280;19554;42.652;23.364;2024-01-30T12:47:48;96410.00;;;2.44;45.70
33191;BME280;19554;42.652;23.364;2024-01-30T12:50:14;96381.44;;;2.20;45.97
33191;BME280;19554;42.652;23.364;2024-01-30T12:52:42;96457.53;;;2.57;46.64
33191;BME280;19554;42.652;23.364;2024-01-30T12:55:08;96456.84;;;2.49;46.75
33191;BME280;19554;42.652;23.364;2024-01-30T12:57:33;96282.34;;;1.90;46.55